sensor_id;sensor_type;location;lat;lon;timestamp;pressure;altitude;pressure_sealevel;temperature;humidity
72336;BME280;65062;48.446;8.834;2022-11-24T00:02:07;96888.66;;;3.19;93.95
72336;BME280;65062;48.446;8.834;2022-11-24T00:05:07;96873.16;;;3.27;94.48
72336;BME280;65062;48.446;8.834;2022-11-24T00:08:08;96880.16;;;3.34;94.67
72336;BME280;65062;48.446;8.834;2022-11-24T00:11:13;96892.56;;;3.23;94.12
72336;BME280;65062;48.446;8.834;2022-11-24T00:14:14;96895.03;;;3.32;94.25
72336;BME280;65062;48.446;8.834;2022-11-24T00:17:14;96884.75;;;3.48;94.64
72336;BME280;65062;48.446;8.834;2022-11-24T00:20:15;96885.63;;;3.31;94.16
72336;BME280;65062;48.446;8.834;2022-11-24T00:23:16;96891.72;;;3.22;94.06
72336;BME280;65062;48.446;8.834;2022-11-24T00:26:19;96889.72;;;3.42;94.34
72336;BME280;65062;48.446;8.834;2022-11-24T00:29:20;96891.97;;;3.37;94.18
72336;BME280;65062;48.446;8.834;2022-11-24T00:32:20;96889.78;;;3.58;94.44
72336;BME280;65062;48.446;8.834;2022-11-24T00:35:20;96884.34;;;3.69;93.91
72336;BME280;65062;48.446;8.834;2022-11-24T00:38:21;96878.13;;;3.54;94.32
72336;BME280;65062;48.446;8.834;2022-11-24T00:41:22;96883.63;;;3.51;93.89
72336;BME280;65062;48.446;8.834;2022-11-24T00:44:22;96890.09;;;3.47;93.77
72336;BME280;65062;48.446;8.834;2022-11-24T00:47:23;96885.84;;;3.38;93.52
72336;BME280;65062;48.446;8.834;2022-11-24T00:50:23;96888.44;;;3.46;93.21
72336;BME280;65062;48.446;8.834;2022-11-24T00:53:24;96905.81;;;3.69;94.41
72336;BME280;65062;48.446;8.834;2022-11-24T00:56:25;96902.88;;;4.30;94.47
72336;BME280;65062;48.446;8.834;2022-11-24T00:59:26;96906.59;;;4.52;94.15
72336;BME280;65062;48.446;8.834;2022-11-24T01:02:26;96921.34;;;4.43;92.34
72336;BME280;65062;48.446;8.834;2022-11-24T01:05:26;96925.66;;;4.10;91.56
72336;BME280;65062;48.446;8.834;2022-11-24T01:08:27;96926.41;;;3.87;91.58
72336;BME280;65062;48.446;8.834;2022-11-24T01:11:30;96926.72;;;3.84;91.89
72336;BME280;65062;48.446;8.834;2022-11-24T01:14:54;96928.31;;;3.69;92.26
72336;BME280;65062;48.446;8.834;2022-11-24T01:17:55;96945.56;;;3.60;91.69
72336;BME280;65062;48.446;8.834;2022-11-24T01:20:55;96954.00;;;3.62;92.66
72336;BME280;65062;48.446;8.834;2022-11-24T01:23:56;96949.34;;;3.66;93.75
72336;BME280;65062;48.446;8.834;2022-11-24T01:26:56;96942.97;;;4.02;93.81
72336;BME280;65062;48.446;8.834;2022-11-24T01:29:57;96945.44;;;4.19;93.60
72336;BME280;65062;48.446;8.834;2022-11-24T01:32:57;96948.69;;;4.29;94.32
72336;BME280;65062;48.446;8.834;2022-11-24T01:35:57;96959.84;;;4.22;94.59
72336;BME280;65062;48.446;8.834;2022-11-24T01:38:58;96963.13;;;4.56;94.51
72336;BME280;65062;48.446;8.834;2022-11-24T01:42:01;96965.69;;;4.32;94.49
72336;BME280;65062;48.446;8.834;2022-11-24T01:45:35;96969.25;;;4.31;94.26
72336;BME280;65062;48.446;8.834;2022-11-24T01:48:40;96970.53;;;4.27;93.57
72336;BME280;65062;48.446;8.834;2022-11-24T01:51:49;96970.03;;;4.15;92.89
72336;BME280;65062;48.446;8.834;2022-11-24T01:55:01;96974.81;;;3.94;92.72
72336;BME280;65062;48.446;8.834;2022-11-24T01:58:10;96975.59;;;3.79;92.28
72336;BME280;65062;48.446;8.834;2022-11-24T02:01:12;96975.06;;;3.67;92.07
72336;BME280;65062;48.446;8.834;2022-11-24T02:04:16;96981.88;;;3.76;93.37
72336;BME280;65062;48.446;8.834;2022-11-24T02:07:17;96978.25;;;3.61;93.33
72336;BME280;65062;48.446;8.834;2022-11-24T02:10:17;96978.19;;;3.53;92.67
72336;BME280;65062;48.446;8.834;2022-11-24T02:13:18;96959.19;;;3.37;92.72
72336;BME280;65062;48.446;8.834;2022-11-24T02:16:18;96974.53;;;3.30;91.82
72336;BME280;65062;48.446;8.834;2022-11-24T02:25:50;96976.41;;;2.95;92.73
72336;BME280;65062;48.446;8.834;2022-11-24T02:28:52;96966.84;;;2.70;92.67
72336;BME280;65062;48.446;8.834;2022-11-24T02:31:58;96969.38;;;2.62;92.44
72336;BME280;65062;48.446;8.834;2022-11-24T02:35:02;96971.00;;;2.45;92.49
72336;BME280;65062;48.446;8.834;2022-11-24T02:38:04;96968.13;;;2.31;91.73
72336;BME280;65062;48.446;8.834;2022-11-24T02:41:06;96971.50;;;2.31;92.53
72336;BME280;65062;48.446;8.834;2022-11-24T02:44:08;96965.69;;;2.11;92.79
72336;BME280;65062;48.446;8.834;2022-11-24T02:47:11;96963.53;;;2.07;93.68
72336;BME280;65062;48.446;8.834;2022-11-24T02:50:11;96967.59;;;2.27;94.01
72336;BME280;65062;48.446;8.834;2022-11-24T02:53:12;96976.66;;;2.13;93.63
72336;BME280;65062;48.446;8.834;2022-11-24T02:56:12;96977.38;;;2.06;93.73
72336;BME280;65062;48.446;8.834;2022-11-24T02:59:13;96978.31;;;1.87;93.65
72336;BME280;65062;48.446;8.834;2022-11-24T03:02:13;96985.66;;;1.82;93.50
72336;BME280;65062;48.446;8.834;2022-11-24T03:05:13;96994.56;;;1.70;93.23
72336;BME280;65062;48.446;8.834;2022-11-24T03:08:14;96995.13;;;1.64;93.27
72336;BME280;65062;48.446;8.834;2022-11-24T03:11:15;96988.19;;;1.65;93.40
72336;BME280;65062;48.446;8.834;2022-11-24T03:14:15;96988.91;;;1.84;94.60
72336;BME280;65062;48.446;8.834;2022-11-24T03:17:15;96989.78;;;1.75;94.09
72336;BME280;65062;48.446;8.834;2022-11-24T03:20:16;96987.69;;;1.61;94.49
72336;BME280;65062;48.446;8.834;2022-11-24T03:23:16;96988.91;;;1.57;94.19
72336;BME280;65062;48.446;8.834;2022-11-24T03:26:18;96990.91;;;1.63;94.73
72336;BME280;65062;48.446;8.834;2022-11-24T03:29:19;96999.91;;;1.59;94.42
72336;BME280;65062;48.446;8.834;2022-11-24T03:32:19;96998.91;;;1.70;95.19
72336;BME280;65062;48.446;8.834;2022-11-24T03:35:20;96995.22;;;1.72;94.83
72336;BME280;65062;48.446;8.834;2022-11-24T03:38:21;97004.50;;;1.65;94.55
72336;BME280;65062;48.446;8.834;2022-11-24T03:41:21;97015.47;;;1.67;94.62
72336;BME280;65062;48.446;8.834;2022-11-24T03:44:22;97006.81;;;1.59;94.57
72336;BME280;65062;48.446;8.834;2022-11-24T03:47:22;97014.03;;;1.55;94.79
72336;BME280;65062;48.446;8.834;2022-11-24T03:50:22;97019.41;;;1.71;95.14
72336;BME280;65062;48.446;8.834;2022-11-24T03:53:24;97018.72;;;1.69;95.32
72336;BME280;65062;48.446;8.834;2022-11-24T03:56:24;97029.84;;;1.70;95.39
72336;BME280;65062;48.446;8.834;2022-11-24T03:59:25;97031.31;;;1.82;94.92
72336;BME280;65062;48.446;8.834;2022-11-24T04:02:25;97044.09;;;2.01;95.32
72336;BME280;65062;48.446;8.834;2022-11-24T04:05:25;97038.41;;;1.97;95.78
72336;BME280;65062;48.446;8.834;2022-11-24T04:08:26;97043.56;;;1.97;95.44
72336;BME280;65062;48.446;8.834;2022-11-24T04:11:26;97036.88;;;2.04;95.36
72336;BME280;65062;48.446;8.834;2022-11-24T04:14:50;97053.78;;;2.16;95.71
72336;BME280;65062;48.446;8.834;2022-11-24T04:17:50;97046.88;;;2.17;95.74
72336;BME280;65062;48.446;8.834;2022-11-24T04:20:53;97044.56;;;2.14;95.44
72336;BME280;65062;48.446;8.834;2022-11-24T04:23:53;97043.94;;;2.30;95.02
72336;BME280;65062;48.446;8.834;2022-11-24T04:26:54;97049.78;;;2.04;94.91
72336;BME280;65062;48.446;8.834;2022-11-24T04:29:54;97053.28;;;2.13;94.97
72336;BME280;65062;48.446;8.834;2022-11-24T04:32:54;97052.47;;;2.12;94.95
72336;BME280;65062;48.446;8.834;2022-11-24T04:35:56;97047.69;;;2.17;95.17
72336;BME280;65062;48.446;8.834;2022-11-24T04:38:56;97041.72;;;2.17;94.97
72336;BME280;65062;48.446;8.834;2022-11-24T04:41:56;97047.97;;;2.14;94.86
72336;BME280;65062;48.446;8.834;2022-11-24T04:44:57;97050.28;;;2.17;94.83
72336;BME280;65062;48.446;8.834;2022-11-24T04:47:57;97036.59;;;2.07;95.20
72336;BME280;65062;48.446;8.834;2022-11-24T04:50:57;97047.09;;;2.23;95.48
72336;BME280;65062;48.446;8.834;2022-11-24T04:53:58;97048.88;;;2.23;95.27
72336;BME280;65062;48.446;8.834;2022-11-24T04:56:58;97058.56;;;2.39;95.74
72336;BME280;65062;48.446;8.834;2022-11-24T04:59:58;97057.47;;;2.41;95.39
72336;BME280;65062;48.446;8.834;2022-11-24T05:02:59;97070.25;;;2.43;95.62
72336;BME280;65062;48.446;8.834;2022-11-24T05:05:59;97075.19;;;2.54;95.71
72336;BME280;65062;48.446;8.834;2022-11-24T05:09:00;97070.03;;;2.71;95.56
72336;BME280;65062;48.446;8.834;2022-11-24T05:12:00;97077.03;;;2.79;95.52
72336;BME280;65062;48.446;8.834;2022-11-24T05:15:02;97072.31;;;2.92;95.39
72336;BME280;65062;48.446;8.834;2022-11-24T05:18:04;97073.88;;;3.02;95.00
72336;BME280;65062;48.446;8.834;2022-11-24T05:21:05;97072.16;;;2.93;95.13
72336;BME280;65062;48.446;8.834;2022-11-24T05:24:06;97067.69;;;2.95;94.67
72336;BME280;65062;48.446;8.834;2022-11-24T05:27:06;97067.09;;;2.84;94.43
72336;BME280;65062;48.446;8.834;2022-11-24T05:30:07;97064.72;;;2.73;94.49
72336;BME280;65062;48.446;8.834;2022-11-24T05:33:12;97071.47;;;2.56;94.16
72336;BME280;65062;48.446;8.834;2022-11-24T05:36:18;97068.84;;;2.48;93.85
72336;BME280;65062;48.446;8.834;2022-11-24T05:39:37;97078.84;;;2.34;93.91
72336;BME280;65062;48.446;8.834;2022-11-24T05:42:37;97083.34;;;2.32;94.29
72336;BME280;65062;48.446;8.834;2022-11-24T05:45:41;97080.84;;;2.12;94.05
72336;BME280;65062;48.446;8.834;2022-11-24T05:48:42;97089.84;;;2.08;93.95
72336;BME280;65062;48.446;8.834;2022-11-24T05:51:42;97097.03;;;2.14;94.10
72336;BME280;65062;48.446;8.834;2022-11-24T05:54:43;97098.78;;;2.14;94.45
72336;BME280;65062;48.446;8.834;2022-11-24T05:57:43;97090.91;;;2.15;94.73
72336;BME280;65062;48.446;8.834;2022-11-24T06:00:43;97101.91;;;2.17;95.28
72336;BME280;65062;48.446;8.834;2022-11-24T06:03:44;97103.38;;;2.20;94.53
72336;BME280;65062;48.446;8.834;2022-11-24T06:06:45;97102.03;;;2.16;94.12
72336;BME280;65062;48.446;8.834;2022-11-24T06:09:45;97104.75;;;2.14;94.83
72336;BME280;65062;48.446;8.834;2022-11-24T06:12:46;97090.06;;;2.15;94.97
72336;BME280;65062;48.446;8.834;2022-11-24T06:15:46;97081.56;;;2.32;94.71
72336;BME280;65062;48.446;8.834;2022-11-24T06:18:47;97077.56;;;2.20;94.48
72336;BME280;65062;48.446;8.834;2022-11-24T06:21:47;97078.88;;;2.24;95.24
72336;BME280;65062;48.446;8.834;2022-11-24T06:24:47;97067.59;;;2.25;95.37
72336;BME280;65062;48.446;8.834;2022-11-24T06:27:49;97080.72;;;2.41;95.29
72336;BME280;65062;48.446;8.834;2022-11-24T06:30:50;97088.22;;;2.35;94.96
72336;BME280;65062;48.446;8.834;2022-11-24T06:33:50;97093.38;;;2.35;95.51
72336;BME280;65062;48.446;8.834;2022-11-24T06:36:51;97093.78;;;2.40;95.76
72336;BME280;65062;48.446;8.834;2022-11-24T06:39:51;97106.38;;;2.43;95.37
72336;BME280;65062;48.446;8.834;2022-11-24T06:42:51;97102.97;;;2.42;95.60
72336;BME280;65062;48.446;8.834;2022-11-24T06:45:52;97121.56;;;2.46;95.26
72336;BME280;65062;48.446;8.834;2022-11-24T06:48:52;97122.97;;;2.40;95.24
72336;BME280;65062;48.446;8.834;2022-11-24T06:51:54;97132.06;;;2.44;95.21
72336;BME280;65062;48.446;8.834;2022-11-24T06:54:54;97141.38;;;2.55;95.27
72336;BME280;65062;48.446;8.834;2022-11-24T06:57:55;97151.16;;;2.78;95.11
72336;BME280;65062;48.446;8.834;2022-11-24T07:00:55;97143.25;;;2.80;94.91
72336;BME280;65062;48.446;8.834;2022-11-24T07:03:56;97147.63;;;2.79;94.97
72336;BME280;65062;48.446;8.834;2022-11-24T07:06:56;97155.88;;;2.83;94.73
72336;BME280;65062;48.446;8.834;2022-11-24T07:09:56;97152.22;;;2.85;94.77
72336;BME280;65062;48.446;8.834;2022-11-24T07:12:57;97164.25;;;2.94;94.91
72336;BME280;65062;48.446;8.834;2022-11-24T07:15:58;97159.47;;;2.99;94.94
72336;BME280;65062;48.446;8.834;2022-11-24T07:18:59;97156.28;;;3.05;95.08
72336;BME280;65062;48.446;8.834;2022-11-24T07:21:59;97167.16;;;3.09;95.52
72336;BME280;65062;48.446;8.834;2022-11-24T07:25:00;97171.38;;;3.27;95.52
72336;BME280;65062;48.446;8.834;2022-11-24T07:28:00;97178.91;;;3.56;94.63
72336;BME280;65062;48.446;8.834;2022-11-24T07:31:05;97198.63;;;3.57;94.99
72336;BME280;65062;48.446;8.834;2022-11-24T07:34:06;97200.75;;;3.61;95.20
72336;BME280;65062;48.446;8.834;2022-11-24T07:37:06;97229.72;;;3.65;95.30
72336;BME280;65062;48.446;8.834;2022-11-24T07:40:07;97227.41;;;3.79;95.03
72336;BME280;65062;48.446;8.834;2022-11-24T07:43:07;97244.34;;;3.91;95.20
72336;BME280;65062;48.446;8.834;2022-11-24T07:46:11;97242.94;;;3.97;95.78
72336;BME280;65062;48.446;8.834;2022-11-24T07:49:12;97242.78;;;3.98;95.53
72336;BME280;65062;48.446;8.834;2022-11-24T07:52:12;97253.34;;;4.05;94.33
72336;BME280;65062;48.446;8.834;2022-11-24T07:55:13;97252.53;;;4.04;94.88
72336;BME280;65062;48.446;8.834;2022-11-24T07:58:13;97255.94;;;4.05;95.00
72336;BME280;65062;48.446;8.834;2022-11-24T08:01:15;97231.50;;;4.07;95.60
72336;BME280;65062;48.446;8.834;2022-11-24T08:04:16;97229.13;;;4.14;94.83
72336;BME280;65062;48.446;8.834;2022-11-24T08:07:16;97248.75;;;4.42;94.89
72336;BME280;65062;48.446;8.834;2022-11-24T08:10:17;97257.19;;;4.44;95.17
72336;BME280;65062;48.446;8.834;2022-11-24T08:13:18;97262.69;;;4.49;94.92
72336;BME280;65062;48.446;8.834;2022-11-24T08:16:19;97263.38;;;4.51;94.67
72336;BME280;65062;48.446;8.834;2022-11-24T08:19:20;97271.78;;;4.53;95.82
72336;BME280;65062;48.446;8.834;2022-11-24T08:22:21;97267.28;;;4.55;95.20
72336;BME280;65062;48.446;8.834;2022-11-24T08:25:21;97256.91;;;4.55;95.98
72336;BME280;65062;48.446;8.834;2022-11-24T08:28:24;97259.63;;;4.79;95.87
72336;BME280;65062;48.446;8.834;2022-11-24T08:31:26;97266.44;;;4.80;95.56
72336;BME280;65062;48.446;8.834;2022-11-24T08:34:31;97269.03;;;4.80;96.07
72336;BME280;65062;48.446;8.834;2022-11-24T08:37:32;97272.66;;;4.95;95.58
72336;BME280;65062;48.446;8.834;2022-11-24T08:40:32;97266.50;;;4.96;95.61
72336;BME280;65062;48.446;8.834;2022-11-24T08:43:33;97268.81;;;5.07;95.93
72336;BME280;65062;48.446;8.834;2022-11-24T08:46:33;97273.84;;;5.09;95.35
72336;BME280;65062;48.446;8.834;2022-11-24T08:49:34;97279.88;;;5.17;95.55
72336;BME280;65062;48.446;8.834;2022-11-24T08:52:34;97277.13;;;5.27;95.32
72336;BME280;65062;48.446;8.834;2022-11-24T08:55:34;97286.25;;;5.39;96.45
72336;BME280;65062;48.446;8.834;2022-11-24T08:58:35;97282.94;;;5.70;95.87
72336;BME280;65062;48.446;8.834;2022-11-24T09:01:36;97278.91;;;5.92;96.08
72336;BME280;65062;48.446;8.834;2022-11-24T09:04:37;97274.06;;;6.05;95.76
72336;BME280;65062;48.446;8.834;2022-11-24T09:07:37;97278.09;;;6.07;95.19
72336;BME280;65062;48.446;8.834;2022-11-24T09:10:38;97284.28;;;6.14;95.60
72336;BME280;65062;48.446;8.834;2022-11-24T09:13:39;97286.72;;;6.08;94.98
72336;BME280;65062;48.446;8.834;2022-11-24T09:16:40;97280.38;;;6.02;95.12
72336;BME280;65062;48.446;8.834;2022-11-24T09:19:40;97289.31;;;6.00;95.13
72336;BME280;65062;48.446;8.834;2022-11-24T09:22:41;97287.69;;;6.07;94.56
72336;BME280;65062;48.446;8.834;2022-11-24T09:25:42;97288.66;;;6.14;94.96
72336;BME280;65062;48.446;8.834;2022-11-24T09:28:43;97295.97;;;6.26;94.92
72336;BME280;65062;48.446;8.834;2022-11-24T09:31:43;97296.28;;;6.31;95.16
72336;BME280;65062;48.446;8.834;2022-11-24T09:34:43;97302.13;;;6.41;94.70
72336;BME280;65062;48.446;8.834;2022-11-24T09:37:44;97301.47;;;6.56;93.71
72336;BME280;65062;48.446;8.834;2022-11-24T09:40:44;97302.91;;;6.58;92.24
72336;BME280;65062;48.446;8.834;2022-11-24T09:47:08;97314.00;;;6.44;91.84
72336;BME280;65062;48.446;8.834;2022-11-24T09:50:17;97312.50;;;6.66;91.60
72336;BME280;65062;48.446;8.834;2022-11-24T09:57:04;97325.53;;;7.12;88.20
72336;BME280;65062;48.446;8.834;2022-11-24T10:00:11;97319.47;;;7.28;90.21
72336;BME280;65062;48.446;8.834;2022-11-24T10:03:23;97324.00;;;7.34;89.44
72336;BME280;65062;48.446;8.834;2022-11-24T10:06:31;97327.00;;;7.53;88.00
72336;BME280;65062;48.446;8.834;2022-11-24T10:20:17;97320.88;;;9.11;79.99
72336;BME280;65062;48.446;8.834;2022-11-24T10:24:22;97319.41;;;9.37;79.21
72336;BME280;65062;48.446;8.834;2022-11-24T10:27:20;97331.31;;;9.75;78.36
72336;BME280;65062;48.446;8.834;2022-11-24T10:30:25;97325.97;;;9.48;77.81
72336;BME280;65062;48.446;8.834;2022-11-24T10:33:25;97330.31;;;9.41;77.97
72336;BME280;65062;48.446;8.834;2022-11-24T10:36:39;97334.44;;;9.64;77.74
72336;BME280;65062;48.446;8.834;2022-11-24T10:39:53;97331.44;;;10.03;77.72
72336;BME280;65062;48.446;8.834;2022-11-24T10:42:58;97333.66;;;10.20;75.61
72336;BME280;65062;48.446;8.834;2022-11-24T10:46:08;97325.38;;;10.38;74.32
72336;BME280;65062;48.446;8.834;2022-11-24T10:49:24;97323.28;;;11.10;70.26
72336;BME280;65062;48.446;8.834;2022-11-24T10:52:35;97326.00;;;12.56;63.11
72336;BME280;65062;48.446;8.834;2022-11-24T10:59:24;97316.25;;;15.21;53.23
72336;BME280;65062;48.446;8.834;2022-11-24T11:02:31;97322.94;;;14.19;55.74
72336;BME280;65062;48.446;8.834;2022-11-24T11:08:32;97329.34;;;13.98;57.83
72336;BME280;65062;48.446;8.834;2022-11-24T11:11:34;97326.72;;;14.60;52.99
72336;BME280;65062;48.446;8.834;2022-11-24T11:14:35;97325.38;;;15.43;49.06
72336;BME280;65062;48.446;8.834;2022-11-24T11:17:37;97331.19;;;15.99;49.05
72336;BME280;65062;48.446;8.834;2022-11-24T11:20:37;97321.69;;;17.15;45.40
72336;BME280;65062;48.446;8.834;2022-11-24T11:23:38;97324.91;;;18.19;43.57
72336;BME280;65062;48.446;8.834;2022-11-24T11:26:40;97317.84;;;20.43;38.87
72336;BME280;65062;48.446;8.834;2022-11-24T11:29:44;97324.06;;;19.63;36.42
72336;BME280;65062;48.446;8.834;2022-11-24T11:33:02;97318.47;;;19.43;39.61
72336;BME280;65062;48.446;8.834;2022-11-24T11:36:08;97329.09;;;20.82;35.10
72336;BME280;65062;48.446;8.834;2022-11-24T11:45:35;97327.88;;;24.23;31.72
72336;BME280;65062;48.446;8.834;2022-11-24T11:48:37;97333.91;;;26.76;29.60
72336;BME280;65062;48.446;8.834;2022-11-24T11:54:56;97349.50;;;23.13;29.28
72336;BME280;65062;48.446;8.834;2022-11-24T12:04:58;97347.06;;;15.45;45.44
72336;BME280;65062;48.446;8.834;2022-11-24T12:08:12;97369.09;;;13.71;50.01
72336;BME280;65062;48.446;8.834;2022-11-24T12:11:30;97372.25;;;12.83;55.29
72336;BME280;65062;48.446;8.834;2022-11-24T12:17:55;97371.25;;;12.91;56.15
72336;BME280;65062;48.446;8.834;2022-11-24T12:21:16;97371.69;;;15.33;49.10
72336;BME280;65062;48.446;8.834;2022-11-24T12:24:22;97372.09;;;18.34;42.67
72336;BME280;65062;48.446;8.834;2022-11-24T12:31:29;97368.16;;;22.68;32.38
72336;BME280;65062;48.446;8.834;2022-11-24T12:34:13;97365.44;;;21.03;34.53
72336;BME280;65062;48.446;8.834;2022-11-24T12:37:51;97366.19;;;21.72;32.43
72336;BME280;65062;48.446;8.834;2022-11-24T12:41:05;97363.44;;;20.30;35.15
72336;BME280;65062;48.446;8.834;2022-11-24T12:50:53;97363.31;;;17.20;41.07
72336;BME280;65062;48.446;8.834;2022-11-24T12:53:55;97364.75;;;18.24;39.86
72336;BME280;65062;48.446;8.834;2022-11-24T13:00:19;97379.25;;;18.33;37.42
72336;BME280;65062;48.446;8.834;2022-11-24T13:06:57;97386.31;;;18.56;38.50
72336;BME280;65062;48.446;8.834;2022-11-24T13:13:26;97394.47;;;15.52;43.27
72336;BME280;65062;48.446;8.834;2022-11-24T13:16:27;97397.28;;;14.14;46.60
72336;BME280;65062;48.446;8.834;2022-11-24T13:19:32;97385.16;;;16.51;42.08
72336;BME280;65062;48.446;8.834;2022-11-24T13:22:33;97389.47;;;18.02;39.47
72336;BME280;65062;48.446;8.834;2022-11-24T13:25:34;97394.91;;;19.41;36.18
72336;BME280;65062;48.446;8.834;2022-11-24T13:29:04;97385.31;;;20.16;32.91
72336;BME280;65062;48.446;8.834;2022-11-24T13:35:13;97385.41;;;20.74;32.18
72336;BME280;65062;48.446;8.834;2022-11-24T13:38:52;97385.78;;;20.88;31.77
72336;BME280;65062;48.446;8.834;2022-11-24T13:45:00;97377.69;;;22.49;29.14
72336;BME280;65062;48.446;8.834;2022-11-24T13:51:28;97381.97;;;21.42;31.60
72336;BME280;65062;48.446;8.834;2022-11-24T13:54:28;97385.56;;;20.14;33.51
72336;BME280;65062;48.446;8.834;2022-11-24T13:57:37;97381.97;;;18.10;37.28
72336;BME280;65062;48.446;8.834;2022-11-24T14:00:58;97377.22;;;17.15;40.23
72336;BME280;65062;48.446;8.834;2022-11-24T14:04:36;97384.00;;;17.00;40.89
72336;BME280;65062;48.446;8.834;2022-11-24T14:07:40;97388.13;;;16.54;42.48
72336;BME280;65062;48.446;8.834;2022-11-24T14:10:41;97387.91;;;16.26;43.53
72336;BME280;65062;48.446;8.834;2022-11-24T14:13:42;97379.97;;;15.79;42.78
72336;BME280;65062;48.446;8.834;2022-11-24T14:16:43;97382.88;;;15.71;43.13
72336;BME280;65062;48.446;8.834;2022-11-24T14:19:51;97379.97;;;14.94;46.65
72336;BME280;65062;48.446;8.834;2022-11-24T14:22:52;97387.19;;;14.73;46.74
72336;BME280;65062;48.446;8.834;2022-11-24T14:25:53;97394.50;;;13.20;50.03
72336;BME280;65062;48.446;8.834;2022-11-24T14:28:53;97397.69;;;11.90;55.39
72336;BME280;65062;48.446;8.834;2022-11-24T14:32:02;97398.34;;;10.75;60.29
72336;BME280;65062;48.446;8.834;2022-11-24T14:35:22;97398.69;;;9.94;63.68
72336;BME280;65062;48.446;8.834;2022-11-24T14:38:22;97393.19;;;9.39;65.62
72336;BME280;65062;48.446;8.834;2022-11-24T14:41:24;97397.34;;;8.82;68.60
72336;BME280;65062;48.446;8.834;2022-11-24T14:44:29;97393.31;;;8.57;69.63
72336;BME280;65062;48.446;8.834;2022-11-24T14:47:33;97387.28;;;8.34;69.29
72336;BME280;65062;48.446;8.834;2022-11-24T14:50:35;97396.13;;;7.94;71.67
72336;BME280;65062;48.446;8.834;2022-11-24T14:53:39;97404.09;;;7.70;71.78
72336;BME280;65062;48.446;8.834;2022-11-24T14:56:54;97402.59;;;7.29;73.11
72336;BME280;65062;48.446;8.834;2022-11-24T15:00:19;97398.72;;;7.17;75.38
72336;BME280;65062;48.446;8.834;2022-11-24T15:03:24;97395.50;;;6.99;75.52
72336;BME280;65062;48.446;8.834;2022-11-24T15:06:24;97402.66;;;6.81;76.36
72336;BME280;65062;48.446;8.834;2022-11-24T15:09:42;97400.56;;;6.61;76.93
72336;BME280;65062;48.446;8.834;2022-11-24T15:12:51;97408.72;;;6.50;77.66
72336;BME280;65062;48.446;8.834;2022-11-24T15:15:55;97415.50;;;6.26;77.69
72336;BME280;65062;48.446;8.834;2022-11-24T15:19:00;97410.13;;;6.04;79.20
72336;BME280;65062;48.446;8.834;2022-11-24T15:22:38;97415.81;;;5.74;78.92
72336;BME280;65062;48.446;8.834;2022-11-24T15:25:38;97418.91;;;5.36;80.64
72336;BME280;65062;48.446;8.834;2022-11-24T15:28:39;97416.59;;;5.25;83.46
72336;BME280;65062;48.446;8.834;2022-11-24T15:31:41;97421.78;;;4.99;83.02
72336;BME280;65062;48.446;8.834;2022-11-24T15:34:41;97424.34;;;4.74;84.03
72336;BME280;65062;48.446;8.834;2022-11-24T15:37:42;97434.84;;;4.47;84.35
72336;BME280;65062;48.446;8.834;2022-11-24T15:40:45;97431.06;;;4.23;85.30
72336;BME280;65062;48.446;8.834;2022-11-24T15:43:46;97429.84;;;4.00;85.20
72336;BME280;65062;48.446;8.834;2022-11-24T15:46:46;97422.22;;;3.99;86.82
72336;BME280;65062;48.446;8.834;2022-11-24T15:49:47;97423.16;;;3.80;86.06
72336;BME280;65062;48.446;8.834;2022-11-24T15:52:47;97422.59;;;3.59;86.40
72336;BME280;65062;48.446;8.834;2022-11-24T15:55:48;97424.16;;;3.43;85.98
72336;BME280;65062;48.446;8.834;2022-11-24T15:58:49;97425.22;;;3.23;86.62
72336;BME280;65062;48.446;8.834;2022-11-24T16:01:50;97425.03;;;3.34;88.01
72336;BME280;65062;48.446;8.834;2022-11-24T16:04:50;97434.50;;;3.43;87.16
72336;BME280;65062;48.446;8.834;2022-11-24T16:07:50;97428.28;;;2.99;86.05
72336;BME280;65062;48.446;8.834;2022-11-24T16:10:51;97437.09;;;3.06;88.60
72336;BME280;65062;48.446;8.834;2022-11-24T16:13:51;97436.16;;;2.98;89.31
72336;BME280;65062;48.446;8.834;2022-11-24T16:16:52;97443.09;;;2.97;89.41
72336;BME280;65062;48.446;8.834;2022-11-24T16:19:52;97435.91;;;2.91;89.70
72336;BME280;65062;48.446;8.834;2022-11-24T16:22:53;97440.41;;;2.89;90.47
72336;BME280;65062;48.446;8.834;2022-11-24T16:25:53;97445.59;;;2.80;89.96
72336;BME280;65062;48.446;8.834;2022-11-24T16:28:54;97439.63;;;2.79;91.05
72336;BME280;65062;48.446;8.834;2022-11-24T16:31:54;97436.63;;;2.74;90.68
72336;BME280;65062;48.446;8.834;2022-11-24T16:34:54;97445.84;;;2.77;89.67
72336;BME280;65062;48.446;8.834;2022-11-24T16:37:55;97451.31;;;2.64;90.83
72336;BME280;65062;48.446;8.834;2022-11-24T16:40:55;97450.09;;;2.68;90.93
72336;BME280;65062;48.446;8.834;2022-11-24T16:43:56;97445.34;;;2.64;90.88
72336;BME280;65062;48.446;8.834;2022-11-24T16:46:56;97449.69;;;2.54;91.65
72336;BME280;65062;48.446;8.834;2022-11-24T16:49:56;97443.59;;;2.45;89.60
72336;BME280;65062;48.446;8.834;2022-11-24T16:52:57;97448.75;;;2.36;89.70
72336;BME280;65062;48.446;8.834;2022-11-24T16:55:57;97448.19;;;2.22;91.24
72336;BME280;65062;48.446;8.834;2022-11-24T16:58:57;97453.09;;;2.35;92.05
72336;BME280;65062;48.446;8.834;2022-11-24T17:01:58;97456.34;;;2.37;92.33
72336;BME280;65062;48.446;8.834;2022-11-24T17:04:58;97456.06;;;2.40;92.01
72336;BME280;65062;48.446;8.834;2022-11-24T17:07:58;97445.06;;;2.48;91.99
72336;BME280;65062;48.446;8.834;2022-11-24T17:14:11;97451.59;;;2.23;91.86
72336;BME280;65062;48.446;8.834;2022-11-24T17:17:11;97453.50;;;2.21;92.28
72336;BME280;65062;48.446;8.834;2022-11-24T17:20:11;97465.72;;;2.09;92.04
72336;BME280;65062;48.446;8.834;2022-11-24T17:23:12;97462.03;;;2.12;92.38
72336;BME280;65062;48.446;8.834;2022-11-24T17:26:14;97472.22;;;2.04;91.29
72336;BME280;65062;48.446;8.834;2022-11-24T17:29:15;97461.06;;;2.03;91.79
72336;BME280;65062;48.446;8.834;2022-11-24T17:32:15;97462.94;;;1.82;91.74
72336;BME280;65062;48.446;8.834;2022-11-24T17:35:16;97454.34;;;1.72;92.05
72336;BME280;65062;48.446;8.834;2022-11-24T17:38:16;97446.25;;;1.86;92.11
72336;BME280;65062;48.446;8.834;2022-11-24T17:41:18;97447.44;;;1.73;92.12
72336;BME280;65062;48.446;8.834;2022-11-24T17:44:18;97451.59;;;1.55;91.28
72336;BME280;65062;48.446;8.834;2022-11-24T17:47:19;97456.28;;;1.40;91.29